sensor_id;sensor_type;location;lat;lon;timestamp;pressure;altitude;pressure_sealevel;temperature;humidity
58385;BME280;44185;47.844;8.966;2023-05-07T00:02:15;96021.97;;;12.43;100.00
58385;BME280;44185;47.844;8.966;2023-05-07T00:04:40;96018.84;;;12.48;100.00
58385;BME280;44185;47.844;8.966;2023-05-07T00:07:06;96031.28;;;12.48;100.00
58385;BME280;44185;47.844;8.966;2023-05-07T00:09:32;96028.13;;;12.44;100.00
58385;BME280;44185;47.844;8.966;2023-05-07T00:11:57;96036.75;;;12.46;100.00
58385;BME280;44185;47.844;8.966;2023-05-07T00:14:23;96034.09;;;12.46;100.00
58385;BME280;44185;47.844;8.966;2023-05-07T00:16:48;96029.94;;;12.43;100.00
58385;BME280;44185;47.844;8.966;2023-05-07T00:19:15;96023.50;;;12.46;100.00
58385;BME280;44185;47.844;8.966;2023-05-07T00:21:40;96022.81;;;12.44;100.00
58385;BME280;44185;47.844;8.966;2023-05-07T00:24:06;96015.06;;;12.51;100.00
58385;BME280;44185;47.844;8.966;2023-05-07T00:26:32;96017.34;;;12.45;100.00
58385;BME280;44185;47.844;8.966;2023-05-07T00:28:57;96023.25;;;12.39;100.00
58385;BME280;44185;47.844;8.966;2023-05-07T00:31:23;96021.78;;;12.27;100.00
58385;BME280;44185;47.844;8.966;2023-05-07T00:33:48;96014.22;;;12.32;100.00
58385;BME280;44185;47.844;8.966;2023-05-07T00:36:15;96012.91;;;12.18;100.00
58385;BME280;44185;47.844;8.966;2023-05-07T00:38:40;96013.03;;;12.16;100.00
58385;BME280;44185;47.844;8.966;2023-05-07T00:41:06;96009.63;;;12.24;100.00
58385;BME280;44185;47.844;8.966;2023-05-07T00:43:31;96003.50;;;12.23;100.00
58385;BME280;44185;47.844;8.966;2023-05-07T00:45:56;96003.50;;;12.23;100.00
58385;BME280;44185;47.844;8.966;2023-05-07T00:48:22;96004.03;;;12.27;100.00
58385;BME280;44185;47.844;8.966;2023-05-07T00:50:47;96011.03;;;12.28;100.00
58385;BME280;44185;47.844;8.966;2023-05-07T00:53:14;96003.19;;;12.27;100.00
58385;BME280;44185;47.844;8.966;2023-05-07T00:55:40;96005.28;;;12.33;100.00
58385;BME280;44185;47.844;8.966;2023-05-07T00:58:06;96008.09;;;12.31;100.00
58385;BME280;44185;47.844;8.966;2023-05-07T01:00:32;96013.81;;;12.27;100.00
58385;BME280;44185;47.844;8.966;2023-05-07T01:02:57;96008.00;;;12.23;100.00
58385;BME280;44185;47.844;8.966;2023-05-07T01:05:24;96012.28;;;12.24;100.00
58385;BME280;44185;47.844;8.966;2023-05-07T01:07:52;96011.47;;;12.23;100.00
58385;BME280;44185;47.844;8.966;2023-05-07T01:10:20;96009.50;;;12.26;100.00
58385;BME280;44185;47.844;8.966;2023-05-07T01:12:46;96013.53;;;12.30;100.00
58385;BME280;44185;47.844;8.966;2023-05-07T01:15:13;96007.16;;;12.22;100.00
58385;BME280;44185;47.844;8.966;2023-05-07T01:17:40;96002.81;;;12.21;100.00
58385;BME280;44185;47.844;8.966;2023-05-07T01:20:07;96000.03;;;12.13;100.00
58385;BME280;44185;47.844;8.966;2023-05-07T01:22:35;96003.69;;;12.12;100.00
58385;BME280;44185;47.844;8.966;2023-05-07T01:25:01;96001.88;;;12.12;100.00
58385;BME280;44185;47.844;8.966;2023-05-07T01:27:27;96006.22;;;12.14;100.00
58385;BME280;44185;47.844;8.966;2023-05-07T01:29:53;96008.44;;;12.08;100.00
58385;BME280;44185;47.844;8.966;2023-05-07T01:32:23;96011.00;;;12.00;100.00
58385;BME280;44185;47.844;8.966;2023-05-07T01:34:52;96005.63;;;11.92;100.00
58385;BME280;44185;47.844;8.966;2023-05-07T01:37:18;95999.69;;;11.98;100.00
58385;BME280;44185;47.844;8.966;2023-05-07T01:39:45;96001.22;;;12.00;100.00
58385;BME280;44185;47.844;8.966;2023-05-07T01:42:10;95994.22;;;12.09;100.00
58385;BME280;44185;47.844;8.966;2023-05-07T01:44:36;96005.66;;;12.10;100.00
58385;BME280;44185;47.844;8.966;2023-05-07T01:47:02;96006.63;;;12.09;100.00
58385;BME280;44185;47.844;8.966;2023-05-07T01:49:28;95998.19;;;11.95;100.00
58385;BME280;44185;47.844;8.966;2023-05-07T01:51:54;95997.31;;;12.05;100.00
58385;BME280;44185;47.844;8.966;2023-05-07T01:54:19;95996.59;;;12.02;100.00
58385;BME280;44185;47.844;8.966;2023-05-07T01:56:51;95991.84;;;12.06;100.00
58385;BME280;44185;47.844;8.966;2023-05-07T01:59:17;95995.63;;;12.04;100.00
58385;BME280;44185;47.844;8.966;2023-05-07T02:01:42;96000.38;;;12.00;100.00
58385;BME280;44185;47.844;8.966;2023-05-07T02:04:08;96003.09;;;11.90;100.00
58385;BME280;44185;47.844;8.966;2023-05-07T02:06:33;96008.00;;;11.85;100.00
58385;BME280;44185;47.844;8.966;2023-05-07T02:08:58;96015.19;;;11.64;100.00
58385;BME280;44185;47.844;8.966;2023-05-07T02:11:24;96007.94;;;11.66;100.00
58385;BME280;44185;47.844;8.966;2023-05-07T02:13:51;96006.81;;;11.69;100.00
58385;BME280;44185;47.844;8.966;2023-05-07T02:16:16;96007.34;;;11.73;100.00
58385;BME280;44185;47.844;8.966;2023-05-07T02:18:41;96012.38;;;11.66;100.00
58385;BME280;44185;47.844;8.966;2023-05-07T02:21:07;96013.41;;;11.55;100.00
58385;BME280;44185;47.844;8.966;2023-05-07T02:23:32;96020.38;;;11.56;100.00
58385;BME280;44185;47.844;8.966;2023-05-07T02:25:58;96015.31;;;11.63;100.00
58385;BME280;44185;47.844;8.966;2023-05-07T02:28:23;96016.03;;;11.65;100.00
58385;BME280;44185;47.844;8.966;2023-05-07T02:30:50;96011.75;;;11.54;100.00
58385;BME280;44185;47.844;8.966;2023-05-07T02:33:15;96011.06;;;11.42;100.00
58385;BME280;44185;47.844;8.966;2023-05-07T02:35:41;96011.66;;;11.36;100.00
58385;BME280;44185;47.844;8.966;2023-05-07T02:38:06;96011.25;;;11.30;100.00
58385;BME280;44185;47.844;8.966;2023-05-07T02:40:32;96011.94;;;11.32;100.00
58385;BME280;44185;47.844;8.966;2023-05-07T02:42:57;96009.84;;;11.26;100.00
58385;BME280;44185;47.844;8.966;2023-05-07T02:45:23;96017.38;;;11.21;100.00
58385;BME280;44185;47.844;8.966;2023-05-07T02:47:49;96011.25;;;11.20;100.00
58385;BME280;44185;47.844;8.966;2023-05-07T02:50:15;96022.53;;;11.12;100.00
58385;BME280;44185;47.844;8.966;2023-05-07T02:52:40;96026.75;;;10.85;100.00
58385;BME280;44185;47.844;8.966;2023-05-07T02:55:06;96020.31;;;10.78;100.00
58385;BME280;44185;47.844;8.966;2023-05-07T02:57:32;96026.34;;;10.90;100.00
58385;BME280;44185;47.844;8.966;2023-05-07T02:59:58;96023.09;;;10.96;100.00
58385;BME280;44185;47.844;8.966;2023-05-07T03:02:23;96022.69;;;10.91;100.00
58385;BME280;44185;47.844;8.966;2023-05-07T03:04:50;96027.19;;;10.90;100.00
58385;BME280;44185;47.844;8.966;2023-05-07T03:07:16;96023.56;;;10.72;100.00
58385;BME280;44185;47.844;8.966;2023-05-07T03:09:41;96020.88;;;10.62;100.00
58385;BME280;44185;47.844;8.966;2023-05-07T03:12:07;96020.75;;;10.63;100.00
58385;BME280;44185;47.844;8.966;2023-05-07T03:14:32;96032.19;;;10.74;100.00
58385;BME280;44185;47.844;8.966;2023-05-07T03:16:57;96028.16;;;10.79;100.00
58385;BME280;44185;47.844;8.966;2023-05-07T03:19:23;96024.78;;;10.67;100.00
58385;BME280;44185;47.844;8.966;2023-05-07T03:21:50;96019.22;;;10.71;100.00
58385;BME280;44185;47.844;8.966;2023-05-07T03:24:15;96016.53;;;10.51;100.00
58385;BME280;44185;47.844;8.966;2023-05-07T03:26:41;96014.69;;;10.31;100.00
58385;BME280;44185;47.844;8.966;2023-05-07T03:29:06;96008.13;;;10.16;100.00
58385;BME280;44185;47.844;8.966;2023-05-07T03:31:32;96013.13;;;10.19;100.00
58385;BME280;44185;47.844;8.966;2023-05-07T03:33:57;96008.97;;;10.16;100.00
58385;BME280;44185;47.844;8.966;2023-05-07T03:36:23;96015.78;;;10.19;100.00
58385;BME280;44185;47.844;8.966;2023-05-07T03:38:50;96018.75;;;9.94;100.00
58385;BME280;44185;47.844;8.966;2023-05-07T03:41:15;96019.19;;;9.99;100.00
58385;BME280;44185;47.844;8.966;2023-05-07T03:43:41;96015.31;;;10.04;100.00
58385;BME280;44185;47.844;8.966;2023-05-07T03:46:06;96022.97;;;10.07;100.00
58385;BME280;44185;47.844;8.966;2023-05-07T03:48:32;96019.38;;;10.08;100.00
58385;BME280;44185;47.844;8.966;2023-05-07T03:50:58;96028.56;;;10.14;100.00
58385;BME280;44185;47.844;8.966;2023-05-07T03:53:24;96031.34;;;10.12;100.00
58385;BME280;44185;47.844;8.966;2023-05-07T03:55:50;96030.22;;;10.15;100.00
58385;BME280;44185;47.844;8.966;2023-05-07T03:58:16;96035.66;;;10.13;100.00
58385;BME280;44185;47.844;8.966;2023-05-07T04:00:41;96033.97;;;10.12;100.00
58385;BME280;44185;47.844;8.966;2023-05-07T04:03:07;96035.53;;;10.15;100.00
58385;BME280;44185;47.844;8.966;2023-05-07T04:05:33;96038.44;;;10.11;100.00
58385;BME280;44185;47.844;8.966;2023-05-07T04:07:58;96032.31;;;10.11;100.00
58385;BME280;44185;47.844;8.966;2023-05-07T04:10:24;96032.41;;;9.99;100.00
58385;BME280;44185;47.844;8.966;2023-05-07T04:12:51;96030.53;;;9.80;100.00
58385;BME280;44185;47.844;8.966;2023-05-07T04:15:16;96024.41;;;9.79;100.00
58385;BME280;44185;47.844;8.966;2023-05-07T04:17:42;96033.31;;;9.78;100.00
58385;BME280;44185;47.844;8.966;2023-05-07T04:20:08;96039.03;;;9.84;100.00
58385;BME280;44185;47.844;8.966;2023-05-07T04:22:34;96032.22;;;9.81;100.00
58385;BME280;44185;47.844;8.966;2023-05-07T04:25:00;96032.75;;;9.85;100.00
58385;BME280;44185;47.844;8.966;2023-05-07T04:27:25;96028.66;;;9.92;100.00
58385;BME280;44185;47.844;8.966;2023-05-07T04:29:52;96036.41;;;9.84;100.00
58385;BME280;44185;47.844;8.966;2023-05-07T04:32:17;96030.56;;;9.90;100.00
58385;BME280;44185;47.844;8.966;2023-05-07T04:34:42;96037.97;;;9.96;100.00
58385;BME280;44185;47.844;8.966;2023-05-07T04:37:09;96041.97;;;9.90;100.00
58385;BME280;44185;47.844;8.966;2023-05-07T04:39:34;96033.38;;;9.98;100.00
58385;BME280;44185;47.844;8.966;2023-05-07T04:42:00;96041.75;;;10.04;100.00
58385;BME280;44185;47.844;8.966;2023-05-07T04:44:25;96036.19;;;10.07;100.00
58385;BME280;44185;47.844;8.966;2023-05-07T04:46:52;96038.03;;;10.16;100.00
58385;BME280;44185;47.844;8.966;2023-05-07T04:49:17;96035.84;;;10.21;100.00
58385;BME280;44185;47.844;8.966;2023-05-07T04:51:43;96031.25;;;10.23;100.00
58385;BME280;44185;47.844;8.966;2023-05-07T04:54:08;96037.66;;;10.31;100.00
58385;BME280;44185;47.844;8.966;2023-05-07T04:56:34;96036.81;;;10.30;100.00
58385;BME280;44185;47.844;8.966;2023-05-07T04:58:59;96045.31;;;10.34;100.00
58385;BME280;44185;47.844;8.966;2023-05-07T05:01:25;96042.53;;;10.35;100.00
58385;BME280;44185;47.844;8.966;2023-05-07T05:03:51;96047.44;;;10.40;100.00
58385;BME280;44185;47.844;8.966;2023-05-07T05:06:17;96057.59;;;10.45;100.00
58385;BME280;44185;47.844;8.966;2023-05-07T05:08:42;96059.41;;;10.44;100.00
58385;BME280;44185;47.844;8.966;2023-05-07T05:11:08;96055.25;;;10.52;100.00
58385;BME280;44185;47.844;8.966;2023-05-07T05:13:33;96056.84;;;10.74;100.00
58385;BME280;44185;47.844;8.966;2023-05-07T05:15:58;96061.03;;;10.87;100.00
58385;BME280;44185;47.844;8.966;2023-05-07T05:18:24;96064.78;;;11.04;100.00
58385;BME280;44185;47.844;8.966;2023-05-07T05:20:52;96066.47;;;11.25;100.00
58385;BME280;44185;47.844;8.966;2023-05-07T05:23:17;96069.63;;;11.49;100.00
58385;BME280;44185;47.844;8.966;2023-05-07T05:25:43;96085.25;;;11.52;100.00
58385;BME280;44185;47.844;8.966;2023-05-07T05:28:08;96073.88;;;11.79;100.00
58385;BME280;44185;47.844;8.966;2023-05-07T05:30:34;96084.50;;;12.08;100.00
58385;BME280;44185;47.844;8.966;2023-05-07T05:32:59;96085.06;;;12.21;100.00
58385;BME280;44185;47.844;8.966;2023-05-07T05:35:24;96087.28;;;12.54;100.00
58385;BME280;44185;47.844;8.966;2023-05-07T05:37:51;96085.59;;;12.82;100.00
58385;BME280;44185;47.844;8.966;2023-05-07T05:40:17;96082.56;;;13.13;100.00
58385;BME280;44185;47.844;8.966;2023-05-07T05:42:42;96076.75;;;13.36;100.00
58385;BME280;44185;47.844;8.966;2023-05-07T05:45:09;96077.28;;;13.40;100.00
58385;BME280;44185;47.844;8.966;2023-05-07T05:47:34;96077.47;;;13.65;100.00
58385;BME280;44185;47.844;8.966;2023-05-07T05:50:00;96078.06;;;14.04;100.00
58385;BME280;44185;47.844;8.966;2023-05-07T05:52:25;96078.38;;;14.36;100.00
58385;BME280;44185;47.844;8.966;2023-05-07T05:54:53;96083.78;;;14.61;100.00
58385;BME280;44185;47.844;8.966;2023-05-07T05:57:18;96091.13;;;14.67;100.00
58385;BME280;44185;47.844;8.966;2023-05-07T05:59:44;96082.97;;;14.68;99.32
58385;BME280;44185;47.844;8.966;2023-05-07T06:02:09;96082.28;;;14.66;99.34
58385;BME280;44185;47.844;8.966;2023-05-07T06:04:35;96078.59;;;14.51;100.00
58385;BME280;44185;47.844;8.966;2023-05-07T06:07:00;96082.81;;;14.27;100.00
58385;BME280;44185;47.844;8.966;2023-05-07T06:09:26;96087.06;;;14.54;100.00
58385;BME280;44185;47.844;8.966;2023-05-07T06:11:52;96088.31;;;14.33;100.00
58385;BME280;44185;47.844;8.966;2023-05-07T06:14:18;96094.53;;;14.42;100.00
58385;BME280;44185;47.844;8.966;2023-05-07T06:16:43;96094.22;;;14.45;100.00
58385;BME280;44185;47.844;8.966;2023-05-07T06:19:09;96093.06;;;14.48;100.00
58385;BME280;44185;47.844;8.966;2023-05-07T06:21:34;96088.59;;;14.57;100.00
58385;BME280;44185;47.844;8.966;2023-05-07T06:24:00;96089.72;;;14.54;98.33
58385;BME280;44185;47.844;8.966;2023-05-07T06:26:25;96089.91;;;14.53;97.53
58385;BME280;44185;47.844;8.966;2023-05-07T06:28:52;96091.94;;;14.59;99.07
58385;BME280;44185;47.844;8.966;2023-05-07T06:31:19;96101.91;;;14.65;97.38
58385;BME280;44185;47.844;8.966;2023-05-07T06:33:44;96098.13;;;14.76;97.12
58385;BME280;44185;47.844;8.966;2023-05-07T06:36:10;96095.31;;;14.78;96.15
58385;BME280;44185;47.844;8.966;2023-05-07T06:38:35;96109.00;;;14.83;94.14
58385;BME280;44185;47.844;8.966;2023-05-07T06:41:02;96110.69;;;14.93;94.21
58385;BME280;44185;47.844;8.966;2023-05-07T06:43:27;96115.38;;;14.99;95.09
58385;BME280;44185;47.844;8.966;2023-05-07T06:45:54;96109.88;;;15.09;96.66
58385;BME280;44185;47.844;8.966;2023-05-07T06:48:20;96111.72;;;15.08;95.49
58385;BME280;44185;47.844;8.966;2023-05-07T06:50:45;96115.25;;;15.51;96.06
58385;BME280;44185;47.844;8.966;2023-05-07T06:53:10;96119.56;;;15.94;92.83
58385;BME280;44185;47.844;8.966;2023-05-07T06:55:36;96123.59;;;15.81;91.97
58385;BME280;44185;47.844;8.966;2023-05-07T06:58:02;96122.38;;;16.09;92.55
58385;BME280;44185;47.844;8.966;2023-05-07T07:00:27;96117.22;;;16.16;90.88
58385;BME280;44185;47.844;8.966;2023-05-07T07:02:54;96128.69;;;16.73;89.14
58385;BME280;44185;47.844;8.966;2023-05-07T07:05:20;96129.09;;;17.26;87.63
58385;BME280;44185;47.844;8.966;2023-05-07T07:07:46;96130.47;;;17.13;85.78
58385;BME280;44185;47.844;8.966;2023-05-07T07:10:11;96131.00;;;17.40;84.34
58385;BME280;44185;47.844;8.966;2023-05-07T07:12:36;96124.00;;;17.07;83.95
58385;BME280;44185;47.844;8.966;2023-05-07T07:15:02;96132.75;;;17.72;84.66
58385;BME280;44185;47.844;8.966;2023-05-07T07:17:28;96133.19;;;17.99;81.77
58385;BME280;44185;47.844;8.966;2023-05-07T07:19:54;96133.31;;;17.43;80.49
58385;BME280;44185;47.844;8.966;2023-05-07T07:22:20;96122.41;;;17.68;80.29
58385;BME280;44185;47.844;8.966;2023-05-07T07:24:45;96124.03;;;17.93;81.11
58385;BME280;44185;47.844;8.966;2023-05-07T07:27:11;96120.91;;;17.51;79.16
58385;BME280;44185;47.844;8.966;2023-05-07T07:29:36;96126.06;;;17.91;78.06
58385;BME280;44185;47.844;8.966;2023-05-07T07:32:02;96118.56;;;17.86;78.79
58385;BME280;44185;47.844;8.966;2023-05-07T07:34:27;96121.44;;;17.85;79.02
58385;BME280;44185;47.844;8.966;2023-05-07T07:36:54;96128.22;;;18.11;78.36
58385;BME280;44185;47.844;8.966;2023-05-07T07:39:20;96133.69;;;18.63;76.63
58385;BME280;44185;47.844;8.966;2023-05-07T07:41:45;96138.31;;;18.70;72.68
58385;BME280;44185;47.844;8.966;2023-05-07T07:44:10;96131.34;;;18.90;73.40
58385;BME280;44185;47.844;8.966;2023-05-07T07:46:36;96139.91;;;19.01;72.01
58385;BME280;44185;47.844;8.966;2023-05-07T07:49:02;96140.25;;;18.76;75.85
58385;BME280;44185;47.844;8.966;2023-05-07T07:51:27;96131.03;;;19.38;74.17
58385;BME280;44185;47.844;8.966;2023-05-07T07:53:54;96134.88;;;19.28;72.66
58385;BME280;44185;47.844;8.966;2023-05-07T07:56:19;96131.75;;;19.25;72.20
58385;BME280;44185;47.844;8.966;2023-05-07T07:58:45;96138.38;;;19.73;72.58
58385;BME280;44185;47.844;8.966;2023-05-07T08:01:10;96144.47;;;19.60;70.56
58385;BME280;44185;47.844;8.966;2023-05-07T08:03:36;96140.25;;;19.50;71.59
58385;BME280;44185;47.844;8.966;2023-05-07T08:06:01;96132.09;;;19.59;70.43
58385;BME280;44185;47.844;8.966;2023-05-07T08:08:26;96123.19;;;20.09;69.17
58385;BME280;44185;47.844;8.966;2023-05-07T08:10:53;96134.50;;;20.04;67.85
58385;BME280;44185;47.844;8.966;2023-05-07T08:13:19;96132.44;;;19.77;71.92
58385;BME280;44185;47.844;8.966;2023-05-07T08:15:44;96130.16;;;19.30;70.66
58385;BME280;44185;47.844;8.966;2023-05-07T08:18:09;96129.81;;;18.81;71.80
58385;BME280;44185;47.844;8.966;2023-05-07T08:20:35;96129.91;;;19.47;72.90
58385;BME280;44185;47.844;8.966;2023-05-07T08:23:00;96131.16;;;19.95;72.53
58385;BME280;44185;47.844;8.966;2023-05-07T08:25:26;96131.63;;;20.34;71.96
58385;BME280;44185;47.844;8.966;2023-05-07T08:27:53;96134.59;;;20.47;68.64
58385;BME280;44185;47.844;8.966;2023-05-07T08:30:18;96133.84;;;19.95;68.92
58385;BME280;44185;47.844;8.966;2023-05-07T08:32:43;96138.50;;;19.86;70.03
58385;BME280;44185;47.844;8.966;2023-05-07T08:35:09;96145.72;;;19.86;71.44
58385;BME280;44185;47.844;8.966;2023-05-07T08:37:34;96140.03;;;19.30;72.03
58385;BME280;44185;47.844;8.966;2023-05-07T08:40:00;96140.22;;;18.91;73.05
58385;BME280;44185;47.844;8.966;2023-05-07T08:42:26;96136.66;;;19.43;76.62
58385;BME280;44185;47.844;8.966;2023-05-07T08:44:57;96143.19;;;19.33;74.25
58385;BME280;44185;47.844;8.966;2023-05-07T08:47:22;96138.38;;;19.51;75.05
58385;BME280;44185;47.844;8.966;2023-05-07T08:49:54;96142.44;;;19.40;73.22
58385;BME280;44185;47.844;8.966;2023-05-07T08:52:19;96143.25;;;19.18;75.02
58385;BME280;44185;47.844;8.966;2023-05-07T08:54:45;96144.13;;;19.70;73.43
58385;BME280;44185;47.844;8.966;2023-05-07T08:57:10;96142.84;;;19.87;71.97
58385;BME280;44185;47.844;8.966;2023-05-07T08:59:36;96145.06;;;20.06;72.00
58385;BME280;44185;47.844;8.966;2023-05-07T09:02:04;96146.84;;;20.56;72.86
58385;BME280;44185;47.844;8.966;2023-05-07T09:04:32;96155.16;;;20.68;70.60
58385;BME280;44185;47.844;8.966;2023-05-07T09:06:57;96153.13;;;20.70;70.02
58385;BME280;44185;47.844;8.966;2023-05-07T09:09:23;96149.66;;;19.61;72.43
58385;BME280;44185;47.844;8.966;2023-05-07T09:11:48;96144.94;;;19.92;72.85
58385;BME280;44185;47.844;8.966;2023-05-07T09:14:13;96143.38;;;20.05;72.61
58385;BME280;44185;47.844;8.966;2023-05-07T09:16:39;96140.63;;;20.20;71.74
58385;BME280;44185;47.844;8.966;2023-05-07T09:19:06;96141.94;;;20.31;75.19
58385;BME280;44185;47.844;8.966;2023-05-07T09:21:32;96132.19;;;19.72;71.18
58385;BME280;44185;47.844;8.966;2023-05-07T09:23:57;96138.34;;;19.44;74.91
58385;BME280;44185;47.844;8.966;2023-05-07T09:26:24;96136.91;;;19.48;74.38
58385;BME280;44185;47.844;8.966;2023-05-07T09:28:49;96140.19;;;19.43;73.45
58385;BME280;44185;47.844;8.966;2023-05-07T09:31:15;96137.50;;;19.65;69.59
58385;BME280;44185;47.844;8.966;2023-05-07T09:33:41;96134.81;;;19.87;68.73
58385;BME280;44185;47.844;8.966;2023-05-07T09:36:09;96147.63;;;20.14;71.39
58385;BME280;44185;47.844;8.966;2023-05-07T09:38:36;96138.00;;;20.27;68.31
58385;BME280;44185;47.844;8.966;2023-05-07T09:41:03;96134.72;;;20.67;70.61
58385;BME280;44185;47.844;8.966;2023-05-07T09:43:32;96140.00;;;20.18;71.13
58385;BME280;44185;47.844;8.966;2023-05-07T09:45:58;96132.72;;;20.40;69.52
58385;BME280;44185;47.844;8.966;2023-05-07T09:48:25;96132.56;;;20.55;67.92
58385;BME280;44185;47.844;8.966;2023-05-07T09:50:55;96131.41;;;20.29;69.43
58385;BME280;44185;47.844;8.966;2023-05-07T09:53:22;96129.63;;;20.43;69.29
58385;BME280;44185;47.844;8.966;2023-05-07T09:55:48;96133.00;;;20.23;68.99
58385;BME280;44185;47.844;8.966;2023-05-07T09:58:14;96129.63;;;20.43;69.10
58385;BME280;44185;47.844;8.966;2023-05-07T10:00:42;96123.63;;;20.13;70.48
58385;BME280;44185;47.844;8.966;2023-05-07T10:03:09;96131.66;;;20.41;68.93
58385;BME280;44185;47.844;8.966;2023-05-07T10:05:35;96134.31;;;20.34;68.58
58385;BME280;44185;47.844;8.966;2023-05-07T10:08:01;96120.59;;;20.58;69.34
58385;BME280;44185;47.844;8.966;2023-05-07T10:10:30;96117.97;;;20.72;68.40
58385;BME280;44185;47.844;8.966;2023-05-07T10:12:56;96122.47;;;19.93;68.46
58385;BME280;44185;47.844;8.966;2023-05-07T10:15:22;96119.03;;;20.06;70.00
58385;BME280;44185;47.844;8.966;2023-05-07T10:17:48;96111.16;;;19.76;75.48
58385;BME280;44185;47.844;8.966;2023-05-07T10:20:14;96109.22;;;20.20;69.49
58385;BME280;44185;47.844;8.966;2023-05-07T10:22:43;96102.16;;;20.13;71.01
58385;BME280;44185;47.844;8.966;2023-05-07T10:25:14;96095.97;;;20.54;70.58
58385;BME280;44185;47.844;8.966;2023-05-07T10:27:43;96099.75;;;20.25;71.89
58385;BME280;44185;47.844;8.966;2023-05-07T10:30:16;96096.97;;;20.11;71.90
58385;BME280;44185;47.844;8.966;2023-05-07T10:32:49;96091.19;;;20.43;73.55
58385;BME280;44185;47.844;8.966;2023-05-07T10:35:17;96088.59;;;19.99;74.83
58385;BME280;44185;47.844;8.966;2023-05-07T10:37:44;96084.06;;;19.99;73.09
58385;BME280;44185;47.844;8.966;2023-05-07T10:40:11;96093.06;;;20.14;72.41
58385;BME280;44185;47.844;8.966;2023-05-07T10:42:37;96090.13;;;19.80;70.82
58385;BME280;44185;47.844;8.966;2023-05-07T10:45:13;96086.25;;;19.60;71.67
58385;BME280;44185;47.844;8.966;2023-05-07T10:48:07;96084.22;;;19.91;72.89
58385;BME280;44185;47.844;8.966;2023-05-07T10:50:32;96089.06;;;19.74;73.43
58385;BME280;44185;47.844;8.966;2023-05-07T10:53:20;96082.81;;;19.95;71.70
58385;BME280;44185;47.844;8.966;2023-05-07T10:55:47;96082.59;;;20.26;71.38
58385;BME280;44185;47.844;8.966;2023-05-07T10:58:25;96083.19;;;20.21;70.09
58385;BME280;44185;47.844;8.966;2023-05-07T11:00:57;96088.19;;;19.95;70.68
58385;BME280;44185;47.844;8.966;2023-05-07T11:03:23;96082.44;;;20.05;71.09
58385;BME280;44185;47.844;8.966;2023-05-07T11:06:08;96082.50;;;19.83;72.00
58385;BME280;44185;47.844;8.966;2023-05-07T11:08:52;96077.63;;;20.22;68.70
58385;BME280;44185;47.844;8.966;2023-05-07T11:11:18;96082.34;;;20.63;66.74
58385;BME280;44185;47.844;8.966;2023-05-07T11:13:44;96079.81;;;20.48;65.54
58385;BME280;44185;47.844;8.966;2023-05-07T11:16:19;96083.34;;;20.55;67.98
58385;BME280;44185;47.844;8.966;2023-05-07T11:18:48;96088.22;;;20.87;67.95
58385;BME280;44185;47.844;8.966;2023-05-07T11:21:31;96086.25;;;21.03;67.07
58385;BME280;44185;47.844;8.966;2023-05-07T11:24:01;96101.91;;;20.85;66.05
58385;BME280;44185;47.844;8.966;2023-05-07T11:26:31;96089.63;;;21.39;66.06
58385;BME280;44185;47.844;8.966;2023-05-07T11:29:10;96098.84;;;21.02;66.54
58385;BME280;44185;47.844;8.966;2023-05-07T11:31:38;96089.00;;;20.67;67.06
58385;BME280;44185;47.844;8.966;2023-05-07T11:34:03;96086.09;;;20.62;72.79
58385;BME280;44185;47.844;8.966;2023-05-07T11:36:31;96085.06;;;21.26;69.97
58385;BME280;44185;47.844;8.966;2023-05-07T11:38:57;96078.13;;;20.96;67.69
58385;BME280;44185;47.844;8.966;2023-05-07T11:41:22;96088.81;;;21.59;66.93
58385;BME280;44185;47.844;8.966;2023-05-07T11:43:58;96085.91;;;21.40;69.71
58385;BME280;44185;47.844;8.966;2023-05-07T11:46:24;96082.59;;;21.44;67.93
58385;BME280;44185;47.844;8.966;2023-05-07T11:48:51;96079.22;;;21.02;68.87
58385;BME280;44185;47.844;8.966;2023-05-07T11:51:22;96071.41;;;21.41;66.12
58385;BME280;44185;47.844;8.966;2023-05-07T11:53:48;96070.59;;;21.33;67.70
58385;BME280;44185;47.844;8.966;2023-05-07T11:56:15;96074.94;;;21.48;67.02
58385;BME280;44185;47.844;8.966;2023-05-07T11:58:42;96068.75;;;21.88;66.84
58385;BME280;44185;47.844;8.966;2023-05-07T12:01:09;96066.81;;;22.23;67.34
58385;BME280;44185;47.844;8.966;2023-05-07T12:03:35;96068.88;;;22.28;64.74
58385;BME280;44185;47.844;8.966;2023-05-07T12:06:02;96067.25;;;21.86;67.53
58385;BME280;44185;47.844;8.966;2023-05-07T12:08:28;96067.06;;;22.08;65.23
58385;BME280;44185;47.844;8.966;2023-05-07T12:10:54;96064.53;;;22.27;64.48
58385;BME280;44185;47.844;8.966;2023-05-07T12:13:21;96066.22;;;21.80;64.04
58385;BME280;44185;47.844;8.966;2023-05-07T12:15:50;96055.47;;;21.53;63.85
58385;BME280;44185;47.844;8.966;2023-05-07T12:18:16;96061.06;;;21.31;65.28
58385;BME280;44185;47.844;8.966;2023-05-07T12:20:42;96059.19;;;21.45;65.06
58385;BME280;44185;47.844;8.966;2023-05-07T12:23:09;96048.00;;;21.07;65.65
58385;BME280;44185;47.844;8.966;2023-05-07T12:25:34;96053.81;;;21.25;65.84
58385;BME280;44185;47.844;8.966;2023-05-07T12:28:00;96045.31;;;21.14;67.38
58385;BME280;44185;47.844;8.966;2023-05-07T12:30:26;96057.72;;;21.22;65.74
58385;BME280;44185;47.844;8.966;2023-05-07T12:32:52;96050.28;;;21.58;65.86
58385;BME280;44185;47.844;8.966;2023-05-07T12:35:26;96048.22;;;21.33;66.92
58385;BME280;44185;47.844;8.966;2023-05-07T12:37:54;96053.38;;;21.14;66.83
58385;BME280;44185;47.844;8.966;2023-05-07T12:40:21;96049.34;;;20.89;68.69
58385;BME280;44185;47.844;8.966;2023-05-07T12:42:52;96048.19;;;21.26;66.95
58385;BME280;44185;47.844;8.966;2023-05-07T12:45:18;96054.00;;;21.16;68.26
58385;BME280;44185;47.844;8.966;2023-05-07T12:47:43;96049.22;;;21.11;68.78
58385;BME280;44185;47.844;8.966;2023-05-07T12:50:09;96051.94;;;21.59;67.95
58385;BME280;44185;47.844;8.966;2023-05-07T12:52:34;96055.25;;;21.27;65.51